Time;durP1;ratioP1;P1;durP2;ratioP2;P2;SDS_P1;SDS_P2;PMS_P1;PMS_P2;Temp;Humidity;BMP_temperature;BMP_pressure;BME280_temperature;BME280_humidity;BME280_pressure;Samples;Min_cycle;Max_cycle;Signal;HPM_P1;HPM_P2
2023/03/24 00:00:14;;;;;;;3.55;2.67;;;12.90;99.90;;;;;;2092272;28;20031;-72
2023/03/24 00:01:16;;;;;;;2.90;2.58;;;12.90;99.90;;;;;;2091832;28;20067;-72
2023/03/24 00:02:17;;;;;;;2.70;2.50;;;12.90;99.90;;;;;;2089871;28;20043;-72
2023/03/24 00:03:18;;;;;;;3.05;2.58;;;12.90;99.90;;;;;;2082580;28;20033;-72
2023/03/24 00:04:19;;;;;;;3.42;2.65;;;12.90;99.90;;;;;;2091748;28;20068;-72
2023/03/24 00:05:22;;;;;;;4.13;2.53;;;12.90;99.90;;;;;;2081167;28;20325;-72
2023/03/24 00:06:25;;;;;;;4.22;2.80;;;12.90;99.90;;;;;;2072241;28;20065;-72
2023/03/24 00:07:29;;;;;;;3.35;2.80;;;12.90;99.90;;;;;;2081153;28;20064;-71
2023/03/24 00:08:35;;;;;;;5.15;2.47;;;12.90;99.90;;;;;;2089861;28;20040;-72
2023/03/24 00:09:36;;;;;;;4.65;3.15;;;12.90;99.90;;;;;;2086322;28;20032;-73
2023/03/24 00:10:37;;;;;;;3.80;3.00;;;12.90;99.90;;;;;;2097560;28;20040;-73
2023/03/24 00:11:37;;;;;;;2.88;2.58;;;13.00;99.90;;;;;;2098891;28;20471;-72
2023/03/24 00:12:38;;;;;;;3.55;2.53;;;12.90;99.90;;;;;;2096254;28;20823;-72
2023/03/24 00:13:40;;;;;;;3.00;2.70;;;12.90;99.90;;;;;;2098376;28;20143;-72
2023/03/24 00:14:40;;;;;;;4.03;2.75;;;12.90;99.90;;;;;;2089206;28;20209;-72
2023/03/24 00:15:41;;;;;;;3.00;2.70;;;12.90;99.90;;;;;;2081599;28;20614;-72
2023/03/24 00:16:41;;;;;;;3.10;2.80;;;12.90;99.90;;;;;;2075455;28;20389;-72
2023/03/24 00:17:42;;;;;;;3.47;2.63;;;12.90;99.90;;;;;;2089787;28;20230;-72
2023/03/24 00:18:42;;;;;;;3.05;2.70;;;12.90;99.90;;;;;;2084865;28;20186;-72
2023/03/24 00:19:46;;;;;;;3.22;2.90;;;12.90;99.90;;;;;;2089612;28;20493;-72
2023/03/24 00:20:47;;;;;;;3.35;3.03;;;12.90;99.90;;;;;;2100909;28;20038;-72
2023/03/24 00:21:48;;;;;;;4.45;2.97;;;12.90;99.90;;;;;;2089532;28;20476;-72
2023/03/24 00:22:56;;;;;;;3.30;2.90;;;12.90;99.90;;;;;;2089636;28;20395;-72
2023/03/24 00:23:58;;;;;;;3.30;2.90;;;12.90;99.90;;;;;;2098884;28;20054;-73
2023/03/24 00:25:02;;;;;;;4.88;3.28;;;12.90;99.90;;;;;;2098579;28;20434;-72
2023/03/24 00:26:07;;;;;;;4.45;2.90;;;12.90;99.90;;;;;;2085351;28;20287;-72
2023/03/24 00:27:12;;;;;;;4.90;3.30;;;12.90;99.90;;;;;;2082100;28;20025;-72
2023/03/24 00:28:12;;;;;;;3.40;2.90;;;12.80;99.90;;;;;;2082062;28;20033;-72
2023/03/24 00:29:13;;;;;;;3.65;3.00;;;12.80;99.90;;;;;;2091853;28;20036;-72
2023/03/24 00:30:16;;;;;;;3.10;2.75;;;12.80;99.90;;;;;;2089776;28;20046;-72
2023/03/24 00:31:17;;;;;;;3.20;2.70;;;12.80;99.90;;;;;;2089873;28;20374;-72
2023/03/24 00:32:17;;;;;;;3.20;2.90;;;12.80;99.90;;;;;;2098841;28;20059;-72
2023/03/24 00:33:18;;;;;;;3.33;2.92;;;12.80;99.90;;;;;;2096453;28;20036;-72
2023/03/24 00:34:22;;;;;;;5.40;3.25;;;12.80;99.90;;;;;;2089888;28;20519;-72
2023/03/24 00:35:23;;;;;;;3.97;3.20;;;12.80;99.90;;;;;;2081343;28;20380;-72
2023/03/24 00:36:27;;;;;;;3.80;3.20;;;12.80;99.90;;;;;;2081451;28;20108;-72
2023/03/24 00:37:28;;;;;;;3.50;3.20;;;12.80;99.90;;;;;;2086126;28;20040;-72
2023/03/24 00:38:30;;;;;;;3.90;2.83;;;12.70;99.90;;;;;;2089822;28;20538;-72
2023/03/24 00:39:30;;;;;;;3.80;3.08;;;12.70;99.90;;;;;;2089908;28;20428;-72
2023/03/24 00:40:31;;;;;;;3.53;3.20;;;12.70;99.90;;;;;;2100728;28;20189;-72
2023/03/24 00:41:32;;;;;;;4.68;3.35;;;12.70;99.90;;;;;;2094070;28;20453;-72
2023/03/24 00:42:38;;;;;;;3.50;2.92;;;12.70;99.90;;;;;;2098719;28;20617;-72
2023/03/24 00:43:38;;;;;;;3.75;3.10;;;12.70;99.90;;;;;;2098634;28;20024;-72
2023/03/24 00:44:39;;;;;;;4.80;3.00;;;12.70;99.90;;;;;;2100659;28;20047;-72
2023/03/24 00:45:44;;;;;;;4.70;3.13;;;12.70;99.90;;;;;;2085029;28;20051;-72
2023/03/24 00:46:55;;;;;;;4.05;2.95;;;12.70;99.90;;;;;;2090518;28;20035;-72
2023/03/24 00:47:57;;;;;;;3.50;3.03;;;12.70;99.90;;;;;;2098780;28;20016;-71
2023/03/24 00:49:02;;;;;;;4.18;3.10;;;12.70;99.90;;;;;;2098553;28;20032;-71
2023/03/24 00:50:05;;;;;;;4.07;3.15;;;12.70;99.90;;;;;;2098695;28;20056;-72
2023/03/24 00:51:09;;;;;;;4.18;3.08;;;12.70;99.90;;;;;;2098696;28;20032;-72
2023/03/24 00:52:17;;;;;;;4.10;3.17;;;12.70;99.90;;;;;;2087381;28;20048;-72
2023/03/24 00:53:18;;;;;;;4.80;3.30;;;12.70;99.90;;;;;;2090769;28;20035;-72
2023/03/24 00:54:29;;;;;;;5.45;3.00;;;12.70;99.90;;;;;;2088122;28;20209;-72
2023/03/24 00:55:30;;;;;;;3.20;2.90;;;12.70;99.90;;;;;;2074650;28;20216;-72
2023/03/24 00:56:34;;;;;;;3.20;2.90;;;12.70;99.90;;;;;;2069862;28;20477;-71
2023/03/24 00:57:35;;;;;;;3.22;2.92;;;12.70;99.90;;;;;;2081780;28;20557;-71
2023/03/24 00:58:35;;;;;;;3.42;3.13;;;12.70;99.90;;;;;;2072669;28;20041;-71
2023/03/24 00:59:41;;;;;;;3.90;3.20;;;12.70;99.90;;;;;;2070657;28;20040;-71
2023/03/24 01:00:44;;;;;;;4.28;3.00;;;12.70;99.90;;;;;;2074444;28;20040;-71
2023/03/24 01:01:45;;;;;;;3.97;2.90;;;12.70;99.90;;;;;;2092170;28;20032;-71
2023/03/24 01:02:52;;;;;;;4.45;2.90;;;12.70;99.90;;;;;;2088957;28;20052;-71
2023/03/24 01:03:53;;;;;;;3.97;3.08;;;12.70;99.90;;;;;;2080477;28;20697;-72
2023/03/24 01:04:56;;;;;;;4.15;2.90;;;12.70;99.90;;;;;;2084877;28;20087;-72
2023/03/24 01:06:01;;;;;;;3.25;2.95;;;12.70;99.90;;;;;;2081907;28;20029;-72
2023/03/24 01:07:01;;;;;;;3.35;2.80;;;12.60;99.90;;;;;;2073636;28;20025;-72
2023/03/24 01:08:03;;;;;;;3.72;3.17;;;12.60;99.90;;;;;;2083232;28;20389;-72
2023/03/24 01:09:05;;;;;;;4.30;3.30;;;12.60;99.90;;;;;;2080646;28;20040;-71
2023/03/24 01:10:11;;;;;;;4.60;3.00;;;12.60;99.90;;;;;;2088747;28;20062;-71
2023/03/24 01:11:12;;;;;;;3.40;2.90;;;12.60;99.90;;;;;;2090347;28;20095;-72
2023/03/24 01:12:13;;;;;;;3.42;2.92;;;12.60;99.90;;;;;;2091440;28;20036;-72
2023/03/24 01:13:13;;;;;;;5.22;3.30;;;12.50;99.90;;;;;;2078793;28;20041;-71
2023/03/24 01:14:14;;;;;;;4.05;3.15;;;12.60;99.90;;;;;;2081321;28;20048;-71
2023/03/24 01:15:19;;;;;;;5.53;3.47;;;12.60;99.90;;;;;;2089537;28;20288;-71
2023/03/24 01:16:24;;;;;;;5.10;3.33;;;12.60;99.90;;;;;;2098776;28;20586;-70
2023/03/24 01:17:25;;;;;;;4.40;3.42;;;12.50;99.90;;;;;;2090123;28;20119;-71
2023/03/24 01:18:26;;;;;;;4.60;3.58;;;12.50;99.90;;;;;;2082754;28;20088;-71
2023/03/24 01:19:28;;;;;;;4.05;3.30;;;12.50;99.90;;;;;;2082869;28;20048;-71
2023/03/24 01:20:34;;;;;;;4.50;3.15;;;12.50;99.90;;;;;;2084804;28;20040;-71
2023/03/24 01:21:36;;;;;;;4.85;3.75;;;12.50;99.90;;;;;;2077499;28;20033;-71
2023/03/24 01:22:39;;;;;;;4.95;3.47;;;12.50;99.90;;;;;;2079953;28;20036;-72
2023/03/24 01:23:40;;;;;;;3.53;3.22;;;12.50;99.90;;;;;;2086326;28;20033;-71
2023/03/24 01:24:42;;;;;;;5.78;3.72;;;12.50;99.90;;;;;;2100366;28;20028;-71
2023/03/24 01:25:46;;;;;;;4.95;3.80;;;12.50;99.90;;;;;;2090975;28;20144;-73
2023/03/24 01:26:47;;;;;;;4.80;3.58;;;12.50;99.90;;;;;;2093169;28;20028;-71
2023/03/24 01:27:50;;;;;;;4.35;3.70;;;12.50;99.90;;;;;;2099928;28;20032;-71
2023/03/24 01:28:50;;;;;;;5.47;3.92;;;12.50;99.90;;;;;;2098876;28;20028;-71
2023/03/24 01:29:56;;;;;;;5.80;3.80;;;12.50;99.90;;;;;;2090846;28;20539;-72
2023/03/24 01:30:57;;;;;;;5.20;3.90;;;12.50;99.90;;;;;;2078118;28;20035;-71
2023/03/24 01:31:57;;;;;;;5.68;3.95;;;12.50;99.90;;;;;;2084785;28;20028;-71
2023/03/24 01:32:58;;;;;;;4.72;3.90;;;12.50;99.90;;;;;;2091191;28;20025;-72
2023/03/24 01:33:58;;;;;;;6.05;3.70;;;12.50;99.90;;;;;;2090943;28;20052;-72
2023/03/24 01:34:59;;;;;;;5.80;4.22;;;12.50;99.90;;;;;;2090958;28;20025;-71
2023/03/24 01:36:00;;;;;;;4.68;3.80;;;12.50;99.90;;;;;;2099978;28;20039;-72
2023/03/24 01:37:00;;;;;;;5.60;3.60;;;12.50;99.90;;;;;;2097372;28;20095;-72
2023/03/24 01:38:08;;;;;;;5.78;3.88;;;12.50;99.90;;;;;;2097398;28;20024;-72
2023/03/24 01:39:09;;;;;;;5.38;4.00;;;12.50;99.90;;;;;;2086901;28;20040;-73
2023/03/24 01:40:17;;;;;;;6.68;4.00;;;12.50;99.90;;;;;;2082638;28;20569;-72
2023/03/24 01:41:18;;;;;;;4.72;3.72;;;12.50;99.90;;;;;;2085181;28;20035;-72
2023/03/24 01:42:22;;;;;;;4.68;3.90;;;12.50;99.90;;;;;;2082735;28;20039;-72
2023/03/24 01:43:29;;;;;;;4.50;3.65;;;12.50;99.90;;;;;;2099903;28;20484;-73
2023/03/24 01:44:37;;;;;;;4.05;3.65;;;12.50;99.90;;;;;;2091031;28;20248;-73
2023/03/24 01:45:38;;;;;;;8.25;3.83;;;12.50;99.90;;;;;;2093958;28;20024;-71
2023/03/24 01:46:39;;;;;;;6.95;3.80;;;12.50;99.90;;;;;;2082710;28;20597;-72
2023/03/24 01:47:39;;;;;;;6.25;4.00;;;12.50;99.90;;;;;;2082154;28;20056;-73
2023/03/24 01:49:06;;;;;;;4.57;3.65;;;12.50;99.90;;;;;;2079232;28;20338;-72
2023/03/24 01:50:08;;;;;;;5.07;3.63;;;12.50;99.90;;;;;;2090071;28;20048;-72
2023/03/24 01:51:15;;;;;;;5.60;4.05;;;12.50;99.90;;;;;;2080705;28;20025;-71
2023/03/24 01:52:23;;;;;;;5.85;4.00;;;12.50;99.90;;;;;;2069308;28;20022;-72
2023/03/24 01:53:25;;;;;;;5.07;3.83;;;12.50;99.90;;;;;;2076212;28;20048;-72
2023/03/24 01:54:41;;;;;;;5.90;3.92;;;12.50;99.90;;;;;;2082890;28;20068;-72
2023/03/24 01:55:46;;;;;;;5.90;3.75;;;12.50;99.90;;;;;;2082083;28;20028;-72
2023/03/24 01:57:07;;;;;;;5.75;3.80;;;12.50;99.90;;;;;;2084161;28;20413;-73
2023/03/24 01:58:11;;;;;;;5.20;3.75;;;12.50;99.90;;;;;;2085142;28;20021;-72
2023/03/24 01:59:28;;;;;;;5.50;3.80;;;12.50;99.90;;;;;;2079750;28;20535;-72
2023/03/24 02:00:46;;;;;;;4.70;3.30;;;12.40;99.90;;;;;;2084091;28;20602;-72
2023/03/24 02:02:13;;;;;;;4.22;3.35;;;12.40;99.90;;;;;;2092838;28;20039;-72
2023/03/24 02:03:22;;;;;;;4.28;3.58;;;12.40;99.90;;;;;;2087138;28;20040;-72
2023/03/24 02:04:33;;;;;;;5.93;3.97;;;12.50;99.90;;;;;;2090304;28;20041;-72
2023/03/24 02:05:39;;;;;;;4.70;3.60;;;12.40;99.90;;;;;;2085775;28;20074;-71
2023/03/24 02:06:42;;;;;;;5.45;4.20;;;12.50;99.90;;;;;;2082778;28;20132;-72
2023/03/24 02:08:14;;;;;;;6.32;4.28;;;12.50;99.90;;;;;;2084267;28;20065;-72
2023/03/24 02:09:15;;;;;;;4.95;4.00;;;12.50;99.90;;;;;;2080012;28;20047;-71
2023/03/24 02:10:17;;;;;;;5.65;4.45;;;12.50;99.90;;;;;;2076391;28;20559;-72
2023/03/24 02:11:23;;;;;;;5.10;4.22;;;12.50;99.90;;;;;;2087737;28;20055;-72
2023/03/24 02:12:29;;;;;;;4.35;3.65;;;12.50;99.90;;;;;;2090420;28;20036;-72
2023/03/24 02:13:30;;;;;;;6.97;4.10;;;12.50;99.90;;;;;;2084280;28;20067;-72
2023/03/24 02:14:31;;;;;;;6.53;3.72;;;12.50;99.90;;;;;;2075470;28;20029;-72
2023/03/24 02:15:44;;;;;;;5.93;4.03;;;12.50;99.90;;;;;;2069589;28;20082;-72
2023/03/24 02:17:16;;;;;;;4.25;3.42;;;12.50;99.90;;;;;;2087609;28;20131;-72
2023/03/24 02:18:43;;;;;;;5.95;4.22;;;12.50;99.90;;;;;;2056438;28;20442;-72
2023/03/24 02:20:19;;;;;;;5.57;3.97;;;12.50;99.90;;;;;;2092824;28;20623;-72
2023/03/24 02:21:35;;;;;;;7.90;4.80;;;12.60;99.90;;;;;;2089705;28;20028;-72
2023/03/24 02:23:13;;;;;;;6.05;4.60;;;12.60;99.90;;;;;;2077668;28;20104;-72
2023/03/24 02:24:55;;;;;;;6.13;4.43;;;12.60;99.90;;;;;;2083646;28;20025;-72
2023/03/24 02:26:25;;;;;;;5.85;4.10;;;12.60;99.90;;;;;;2088947;28;20512;-72
2023/03/24 02:27:50;;;;;;;5.05;4.10;;;12.60;99.90;;;;;;2094890;28;20386;-72
2023/03/24 02:29:27;;;;;;;5.00;3.88;;;12.60;99.90;;;;;;2090484;28;20029;-72
2023/03/24 02:31:20;;;;;;;4.40;3.90;;;12.60;99.90;;;;;;2080976;28;20056;-72
2023/03/24 02:32:57;;;;;;;5.53;4.07;;;12.70;99.90;;;;;;2055655;28;20030;-72
2023/03/24 02:34:35;;;;;;;6.47;4.25;;;12.70;99.90;;;;;;2054671;28;20034;-72
2023/03/24 02:35:46;;;;;;;6.22;4.07;;;12.70;99.90;;;;;;2060735;28;20044;-72
2023/03/24 02:37:05;;;;;;;;;;;12.70;99.90;;;;;;2065486;28;20572;-72
2023/03/24 02:38:18;;;;;;;5.35;4.30;;;12.60;99.90;;;;;;2071195;28;19916;-72
2023/03/24 02:39:36;;;;;;;4.35;3.95;;;12.70;99.90;;;;;;2077981;28;20738;-72
2023/03/24 02:41:04;;;;;;;4.95;4.28;;;12.70;99.90;;;;;;2087346;28;20484;-72
2023/03/24 02:42:35;;;;;;;5.63;3.92;;;12.70;99.90;;;;;;2085354;28;20028;-71
2023/03/24 02:43:46;;;;;;;;;;;12.70;99.90;;;;;;2090533;28;20597;-71
2023/03/24 02:45:06;;;;;;;5.22;4.20;;;12.70;99.90;;;;;;2088527;28;19912;-70
2023/03/24 02:46:43;;;;;;;8.30;4.32;;;12.70;99.90;;;;;;2079941;28;20124;-72
2023/03/24 02:47:51;;;;;;;5.90;4.43;;;12.70;99.90;;;;;;2092949;28;20044;-70
2023/03/24 02:49:27;;;;;;;6.72;4.43;;;12.70;99.90;;;;;;2094460;28;20036;-73
2023/03/24 02:50:48;;;;;;;5.65;4.57;;;12.70;99.90;;;;;;2078201;28;20481;-73
2023/03/24 02:51:52;;;;;;;7.18;4.68;;;12.80;99.90;;;;;;2072667;28;20021;-73
2023/03/24 02:53:08;;;;;;;6.30;4.53;;;12.80;99.90;;;;;;2088913;28;20017;-73
2023/03/24 02:54:29;;;;;;;8.65;4.72;;;12.80;99.90;;;;;;2079027;28;20025;-73
2023/03/24 02:55:43;;;;;;;7.45;4.68;;;12.80;99.90;;;;;;2083477;28;20055;-73
2023/03/24 02:56:58;;;;;;;6.13;4.68;;;12.80;99.90;;;;;;2083984;28;20056;-72
2023/03/24 02:58:30;;;;;;;8.23;5.05;;;12.80;99.90;;;;;;2079570;28;20550;-71
2023/03/24 02:59:49;;;;;;;8.30;5.22;;;12.80;99.90;;;;;;2086110;28;20040;-72
2023/03/24 03:01:17;;;;;;;7.82;5.35;;;12.80;99.90;;;;;;2086448;28;20024;-72
2023/03/24 03:02:42;;;;;;;6.68;4.90;;;12.80;99.90;;;;;;2090040;28;20099;-71
2023/03/24 03:03:51;;;;;;;7.40;5.10;;;12.80;99.90;;;;;;2088025;28;20033;-72
2023/03/24 03:04:59;;;;;;;6.57;4.82;;;12.80;99.90;;;;;;2090080;28;20413;-71
2023/03/24 03:06:09;;;;;;;8.73;4.53;;;12.80;99.90;;;;;;2090857;28;20043;-71
2023/03/24 03:07:11;;;;;;;7.70;4.82;;;12.80;99.90;;;;;;2091461;28;20038;-71
2023/03/24 03:08:16;;;;;;;6.00;4.40;;;12.80;99.90;;;;;;2089913;28;20353;-72
2023/03/24 03:09:19;;;;;;;6.25;4.45;;;12.80;99.90;;;;;;2082892;28;20100;-88
2023/03/24 03:10:30;;;;;;;6.65;4.22;;;12.80;99.90;;;;;;2087159;28;20087;-77
2023/03/24 03:11:31;;;;;;;4.38;3.95;;;12.80;99.90;;;;;;2090324;28;20024;-72
2023/03/24 03:12:36;;;;;;;5.32;3.95;;;12.80;99.90;;;;;;2087706;28;20059;-75
2023/03/24 03:13:41;;;;;;;5.75;4.03;;;12.80;99.90;;;;;;2088089;28;20047;-72
2023/03/24 03:14:47;;;;;;;5.63;3.80;;;12.80;99.90;;;;;;2080699;28;20029;-72
2023/03/24 03:15:52;;;;;;;6.22;4.25;;;12.80;99.90;;;;;;2075807;28;20026;-72
2023/03/24 03:17:03;;;;;;;4.78;3.92;;;12.80;99.90;;;;;;2089160;28;20036;-71
2023/03/24 03:18:32;;;;;;;5.18;4.22;;;12.80;99.90;;;;;;2083808;28;20067;-72
2023/03/24 03:19:41;;;;;;;4.30;3.90;;;12.80;99.90;;;;;;2088546;28;20067;-72
2023/03/24 03:20:49;;;;;;;5.70;4.13;;;12.80;99.90;;;;;;2083319;28;20599;-72
2023/03/24 03:21:52;;;;;;;4.80;3.70;;;12.80;99.90;;;;;;2080198;28;20489;-72
2023/03/24 03:23:01;;;;;;;4.38;3.70;;;12.80;99.90;;;;;;2090432;28;20035;-72
2023/03/24 03:24:08;;;;;;;4.55;3.60;;;12.80;99.90;;;;;;2081427;28;20522;-72
2023/03/24 03:25:10;;;;;;;4.15;3.42;;;12.80;99.90;;;;;;2082661;28;20403;-71
2023/03/24 03:26:21;;;;;;;3.83;3.40;;;12.80;99.90;;;;;;2090460;28;20020;-72
2023/03/24 03:27:28;;;;;;;4.32;3.55;;;12.80;99.90;;;;;;2099146;28;20171;-72
2023/03/24 03:28:31;;;;;;;4.63;3.72;;;12.80;99.90;;;;;;2085338;28;20221;-71
2023/03/24 03:29:37;;;;;;;4.70;4.00;;;12.80;99.90;;;;;;2089267;28;20264;-71
2023/03/24 03:30:42;;;;;;;5.57;4.28;;;12.80;99.90;;;;;;2101172;28;20028;-71
2023/03/24 03:31:58;;;;;;;4.82;4.03;;;12.80;99.90;;;;;;2079935;28;20082;-71
2023/03/24 03:33:07;;;;;;;5.60;3.85;;;12.80;99.90;;;;;;2075735;28;20022;-71
2023/03/24 03:34:19;;;;;;;4.63;4.05;;;12.80;99.90;;;;;;2089919;28;20035;-72
2023/03/24 03:35:29;;;;;;;5.25;4.20;;;12.80;99.90;;;;;;2075124;28;20314;-72
2023/03/24 03:36:32;;;;;;;;;;;12.90;99.90;;;;;;2085233;28;20102;-72
2023/03/24 03:37:43;;;;;;;8.18;4.22;;;12.90;99.90;;;;;;2099624;28;19998;-72
2023/03/24 03:39:03;;;;;;;5.15;4.20;;;12.90;99.90;;;;;;2087973;28;20040;-72
2023/03/24 03:40:08;;;;;;;;;;;12.90;99.90;;;;;;2085636;28;20869;-72
2023/03/24 03:41:10;;;;;;;4.95;4.22;;;12.90;99.90;;;;;;2076825;28;19913;-72
2023/03/24 03:42:11;;;;;;;6.10;3.80;;;13.00;99.90;;;;;;2076043;28;20035;-72
2023/03/24 03:43:12;;;;;;;4.47;3.72;;;12.90;99.90;;;;;;2081808;28;20025;-72
2023/03/24 03:44:13;;;;;;;6.47;4.10;;;12.90;99.90;;;;;;2091853;28;20392;-71
2023/03/24 03:45:14;;;;;;;5.68;4.38;;;12.90;99.90;;;;;;2089876;28;20115;-72
2023/03/24 03:46:16;;;;;;;7.25;4.50;;;12.90;99.90;;;;;;2081686;28;20025;-71
2023/03/24 03:47:20;;;;;;;4.72;3.95;;;12.90;99.90;;;;;;2081719;28;20052;-71
2023/03/24 03:48:25;;;;;;;5.70;4.28;;;12.90;99.90;;;;;;2078575;28;20037;-71
2023/03/24 03:49:25;;;;;;;4.93;4.00;;;12.90;99.90;;;;;;2092309;28;20348;-72
2023/03/24 03:50:27;;;;;;;3.95;3.47;;;12.90;99.90;;;;;;2098749;28;20028;-71
2023/03/24 03:51:31;;;;;;;4.32;3.65;;;12.90;99.90;;;;;;2085137;28;20039;-71
2023/03/24 03:52:32;;;;;;;6.25;3.90;;;12.90;99.90;;;;;;2090119;28;20063;-71
2023/03/24 03:53:54;;;;;;;4.47;3.90;;;12.90;99.90;;;;;;2080277;28;20116;-71
2023/03/24 03:54:56;;;;;;;4.00;3.60;;;12.80;99.90;;;;;;2079607;28;20021;-71
2023/03/24 03:55:57;;;;;;;5.93;4.10;;;12.80;99.90;;;;;;2089573;28;20111;-72
2023/03/24 03:56:59;;;;;;;5.18;4.15;;;12.90;99.90;;;;;;2083741;28;20029;-72
2023/03/24 03:58:04;;;;;;;4.95;4.05;;;12.90;99.90;;;;;;2079920;28;20531;-72
2023/03/24 03:59:24;;;;;;;5.80;4.10;;;12.80;99.90;;;;;;2087199;28;20123;-72
2023/03/24 04:00:25;;;;;;;5.72;4.03;;;12.90;99.90;;;;;;2082722;28;20032;-71
2023/03/24 04:01:45;;;;;;;7.30;4.25;;;12.90;99.90;;;;;;2075682;28;20438;-71
2023/03/24 04:03:05;;;;;;;5.55;4.15;;;12.90;99.90;;;;;;2065900;28;20037;-72
2023/03/24 04:04:19;;;;;;;5.60;4.05;;;12.90;99.90;;;;;;2074996;28;20400;-72
2023/03/24 04:06:24;;;;;;;7.03;4.30;;;12.90;99.90;;;;;;2084482;28;20515;-73
2023/03/24 04:07:37;;;;;;;9.05;4.60;;;12.90;99.90;;;;;;2087248;28;20044;-72
2023/03/24 04:09:23;;;;;;;5.45;4.45;;;12.80;99.90;;;;;;2077624;28;20678;-72
2023/03/24 04:10:38;;;;;;;4.68;3.88;;;12.70;99.90;;;;;;2085282;28;20028;-72
2023/03/24 04:11:49;;;;;;;4.53;3.80;;;12.70;99.90;;;;;;2072129;28;20083;-72
2023/03/24 04:13:10;;;;;;;4.85;3.95;;;12.70;99.90;;;;;;2080142;28;20037;-72
2023/03/24 04:14:45;;;;;;;4.82;4.00;;;12.70;99.90;;;;;;2080061;28;20028;-72
2023/03/24 04:16:16;;;;;;;4.07;3.65;;;12.70;99.90;;;;;;2080238;28;20568;-72
2023/03/24 04:17:44;;;;;;;5.30;4.20;;;12.60;99.90;;;;;;2087574;28;20391;-72
2023/03/24 04:19:13;;;;;;;4.70;3.38;;;12.60;99.90;;;;;;2086126;28;20067;-72
2023/03/24 04:20:37;;;;;;;4.00;3.60;;;12.60;99.90;;;;;;2079103;28;20400;-72
2023/03/24 04:22:04;;;;;;;3.95;3.35;;;12.60;99.90;;;;;;2080565;28;20511;-71
2023/03/24 04:23:29;;;;;;;5.07;3.90;;;12.60;99.90;;;;;;2078364;28;20376;-72
2023/03/24 04:24:40;;;;;;;4.38;3.80;;;12.60;99.90;;;;;;2076926;28;20098;-72
2023/03/24 04:26:09;;;;;;;3.60;3.30;;;12.50;99.90;;;;;;2078694;28;20071;-72
2023/03/24 04:27:26;;;;;;;4.68;3.80;;;12.50;99.90;;;;;;2082640;28;20048;-72
2023/03/24 04:28:57;;;;;;;4.70;3.67;;;12.50;99.90;;;;;;2077998;28;20037;-72
2023/03/24 04:30:29;;;;;;;6.53;4.00;;;12.50;99.90;;;;;;2082124;28;20032;-72
2023/03/24 04:31:40;;;;;;;5.25;4.10;;;12.50;99.90;;;;;;2070950;28;20033;-72
2023/03/24 04:33:00;;;;;;;4.57;4.05;;;12.40;99.90;;;;;;2088125;28;20043;-72
2023/03/24 04:34:28;;;;;;;5.18;4.30;;;12.40;99.90;;;;;;2083935;28;20111;-71
2023/03/24 04:35:39;;;;;;;5.53;4.30;;;12.40;99.90;;;;;;2081297;28;20487;-71
2023/03/24 04:37:18;;;;;;;5.18;4.20;;;12.40;99.90;;;;;;2085489;28;20040;-70
2023/03/24 04:38:32;;;;;;;8.57;5.95;;;12.40;99.90;;;;;;2092203;28;20016;-71
2023/03/24 04:39:49;;;;;;;10.77;6.47;;;12.40;99.90;;;;;;2084344;28;20490;-72
2023/03/24 04:40:54;;;;;;;14.70;8.60;;;12.30;99.90;;;;;;2075266;28;20024;-72
2023/03/24 04:41:58;;;;;;;15.52;9.13;;;12.30;99.90;;;;;;2068676;28;20408;-72
2023/03/24 04:43:04;;;;;;;18.80;10.73;;;12.30;99.90;;;;;;2072496;28;20030;-72
2023/03/24 04:44:05;;;;;;;19.42;10.85;;;12.30;99.90;;;;;;2076683;28;20364;-72
2023/03/24 04:45:13;;;;;;;18.67;10.63;;;12.30;99.90;;;;;;2074444;28;20121;-72
2023/03/24 04:46:36;;;;;;;17.30;9.65;;;12.30;99.90;;;;;;2084144;28;20028;-72
2023/03/24 04:47:52;;;;;;;16.35;9.52;;;12.30;99.90;;;;;;2082381;28;20029;-72
2023/03/24 04:49:07;;;;;;;15.23;9.13;;;12.30;99.90;;;;;;2079387;28;20542;-72
2023/03/24 04:50:12;;;;;;;15.63;9.18;;;12.30;99.90;;;;;;2081416;28;20075;-71
2023/03/24 04:51:16;;;;;;;13.88;8.55;;;12.30;99.90;;;;;;2083091;28;20025;-72
2023/03/24 04:52:38;;;;;;;13.02;8.40;;;12.30;99.90;;;;;;2079295;28;20025;-72
2023/03/24 04:53:39;;;;;;;13.73;8.13;;;12.30;99.90;;;;;;2081397;28;20040;-72
2023/03/24 04:54:40;;;;;;;12.63;8.30;;;12.30;99.90;;;;;;2083114;28;20136;-72
2023/03/24 04:55:52;;;;;;;11.00;7.00;;;12.30;99.90;;;;;;2093055;28;20416;-72
2023/03/24 04:57:07;;;;;;;10.63;6.68;;;12.30;99.90;;;;;;2082988;28;20541;-72
2023/03/24 04:58:13;;;;;;;8.20;6.05;;;12.30;99.90;;;;;;2083520;28;20024;-72
2023/03/24 04:59:16;;;;;;;8.68;5.97;;;12.30;99.90;;;;;;2082901;28;20029;-72
2023/03/24 05:00:17;;;;;;;8.82;6.32;;;12.20;99.90;;;;;;2080396;28;20026;-72
2023/03/24 05:01:20;;;;;;;8.15;6.00;;;12.30;99.90;;;;;;2082789;28;20031;-72
2023/03/24 05:02:33;;;;;;;9.48;5.88;;;12.30;99.90;;;;;;2084828;28;20487;-71
2023/03/24 05:03:40;;;;;;;7.97;5.90;;;12.30;99.90;;;;;;2091745;28;20035;-70
2023/03/24 05:04:41;;;;;;;7.85;6.05;;;12.30;99.90;;;;;;2091092;28;20021;-71
2023/03/24 05:05:52;;;;;;;;;;;12.30;99.90;;;;;;2076642;28;20025;-70
2023/03/24 05:06:53;;;;;;;7.82;5.65;;;12.30;99.90;;;;;;2076969;28;20073;-71
2023/03/24 05:07:59;;;;;;;7.60;5.63;;;12.30;99.90;;;;;;2082688;28;20045;-72
2023/03/24 05:08:59;;;;;;;7.22;5.13;;;12.30;99.90;;;;;;2073979;28;20345;-71
2023/03/24 05:10:03;;;;;;;8.55;5.38;;;12.30;99.90;;;;;;2077861;28;20018;-72
2023/03/24 05:11:06;;;;;;;6.32;5.13;;;12.30;99.90;;;;;;2070850;28;20049;-72
2023/03/24 05:12:09;;;;;;;6.20;4.90;;;12.30;99.90;;;;;;2088673;28;20029;-72
2023/03/24 05:13:27;;;;;;;5.90;5.30;;;12.30;99.90;;;;;;2081831;28;20048;-72
2023/03/24 05:14:33;;;;;;;6.45;5.07;;;12.30;99.90;;;;;;2084979;28;20037;-72
2023/03/24 05:15:35;;;;;;;5.53;4.63;;;12.40;99.90;;;;;;2089026;28;20124;-71
2023/03/24 05:16:51;;;;;;;6.85;5.03;;;12.40;99.90;;;;;;2080453;28;20132;-71
2023/03/24 05:17:54;;;;;;;6.35;5.10;;;12.40;99.90;;;;;;2078601;28;20038;-69
2023/03/24 05:18:57;;;;;;;5.45;4.85;;;12.40;99.90;;;;;;2078366;28;20064;-72
2023/03/24 05:19:58;;;;;;;6.72;5.00;;;12.40;99.90;;;;;;2079030;28;20025;-69
2023/03/24 05:20:59;;;;;;;5.95;4.60;;;12.40;99.90;;;;;;2089247;28;20103;-72
2023/03/24 05:22:00;;;;;;;5.78;4.78;;;12.40;99.90;;;;;;2082828;28;20029;-72
2023/03/24 05:23:02;;;;;;;7.05;5.05;;;12.40;99.90;;;;;;2080493;28;20059;-72
2023/03/24 05:24:02;;;;;;;6.32;4.60;;;12.40;99.90;;;;;;2079218;28;20040;-71
2023/03/24 05:25:04;;;;;;;6.50;5.03;;;12.40;99.90;;;;;;2080361;28;20586;-72
2023/03/24 05:26:05;;;;;;;7.03;5.10;;;12.40;99.90;;;;;;2086226;28;20555;-72
2023/03/24 05:27:12;;;;;;;5.13;4.60;;;12.40;99.90;;;;;;2086090;28;20040;-74
2023/03/24 05:28:13;;;;;;;6.18;4.75;;;12.40;99.90;;;;;;2085830;28;20693;-71
2023/03/24 05:29:14;;;;;;;5.82;4.60;;;12.40;99.90;;;;;;2083918;28;20095;-72
2023/03/24 05:30:15;;;;;;;6.68;4.85;;;12.40;99.90;;;;;;2097448;28;20131;-70
2023/03/24 05:31:16;;;;;;;6.72;4.78;;;12.40;99.90;;;;;;2087402;28;20016;-70
2023/03/24 05:32:29;;;;;;;6.90;5.18;;;12.50;99.90;;;;;;2086833;28;20447;-71
2023/03/24 05:33:30;;;;;;;5.70;4.80;;;12.50;99.90;;;;;;2087202;28;20070;-71
2023/03/24 05:34:32;;;;;;;5.57;4.85;;;12.50;99.90;;;;;;2083358;28;20021;-72
2023/03/24 05:35:47;;;;;;;7.80;4.90;;;12.50;99.90;;;;;;2082797;28;20504;-71
2023/03/24 05:36:48;;;;;;;6.47;4.90;;;12.50;99.90;;;;;;2082138;28;20063;-72
2023/03/24 05:37:52;;;;;;;6.55;5.35;;;12.50;99.90;;;;;;2080730;28;20295;-71
2023/03/24 05:38:53;;;;;;;7.65;4.90;;;12.50;99.90;;;;;;2090442;28;20473;-72
2023/03/24 05:39:54;;;;;;;6.75;5.10;;;12.50;99.90;;;;;;2085241;28;20120;-71
2023/03/24 05:41:17;;;;;;;6.15;5.05;;;12.50;99.90;;;;;;2082699;28;20017;-72
2023/03/24 05:42:18;;;;;;;8.50;5.40;;;12.50;99.90;;;;;;2078193;28;20049;-73
2023/03/24 05:43:19;;;;;;;6.72;5.50;;;12.50;99.90;;;;;;2077856;28;20068;-71
2023/03/24 05:44:30;;;;;;;8.60;6.63;;;12.60;99.90;;;;;;2071317;28;20021;-71
2023/03/24 05:45:40;;;;;;;8.07;6.57;;;12.60;99.90;;;;;;2075858;28;20064;-70
2023/03/24 05:46:42;;;;;;;8.98;6.78;;;12.60;99.90;;;;;;2083664;28;20032;-71
2023/03/24 05:47:42;;;;;;;12.90;9.40;;;12.50;99.90;;;;;;2095278;28;20400;-71
2023/03/24 05:48:43;;;;;;;14.13;9.60;;;12.50;99.90;;;;;;2086139;28;20036;-71
2023/03/24 05:49:46;;;;;;;13.02;9.52;;;12.60;99.90;;;;;;2077866;28;20083;-72
2023/03/24 05:50:47;;;;;;;10.43;8.23;;;12.60;99.90;;;;;;2088643;28;20032;-73
2023/03/24 05:51:48;;;;;;;11.43;7.60;;;12.60;99.90;;;;;;2084522;28;20155;-70
2023/03/24 05:52:49;;;;;;;10.45;7.70;;;12.60;99.90;;;;;;2087572;28;20024;-70
2023/03/24 05:54:06;;;;;;;9.43;7.07;;;12.60;99.90;;;;;;2087379;28;20388;-69
2023/03/24 05:55:10;;;;;;;9.32;7.68;;;12.60;99.90;;;;;;2089467;28;20099;-69
2023/03/24 05:56:12;;;;;;;9.05;7.07;;;12.60;99.90;;;;;;2079982;28;20500;-69
2023/03/24 05:57:29;;;;;;;11.32;7.60;;;12.60;99.90;;;;;;2079310;28;20112;-69
2023/03/24 05:58:58;;;;;;;34.80;21.58;;;12.70;99.90;;;;;;2088530;28;20339;-70